Map

Track Data

SID SEASON NUMBER BASIN SUBBASIN NAME ISO_TIME NATURE LAT LON WMO_WIND WMO_PRES WMO_AGENCY TRACK_TYPE DIST2LAND LANDFALL IFLAG USA_AGENCY USA_ATCF_ID USA_LAT USA_LON USA_RECORD USA_STATUS USA_WIND USA_PRES USA_SSHS USA_R34_NE USA_R34_SE USA_R34_SW USA_R34_NW USA_R50_NE USA_R50_SE USA_R50_SW USA_R50_NW USA_R64_NE USA_R64_SE USA_R64_SW USA_R64_NW USA_POCI USA_ROCI USA_RMW USA_EYE TOKYO_LAT TOKYO_LON TOKYO_GRADE TOKYO_WIND TOKYO_PRES TOKYO_R50_DIR TOKYO_R50_LONG TOKYO_R50_SHORT TOKYO_R30_DIR TOKYO_R30_LONG TOKYO_R30_SHORT TOKYO_LAND CMA_LAT CMA_LON CMA_CAT CMA_WIND CMA_PRES HKO_LAT HKO_LON HKO_CAT HKO_WIND HKO_PRES NEWDELHI_LAT NEWDELHI_LON NEWDELHI_GRADE NEWDELHI_WIND NEWDELHI_PRES NEWDELHI_CI NEWDELHI_DP NEWDELHI_POCI REUNION_LAT REUNION_LON REUNION_TYPE REUNION_WIND REUNION_PRES REUNION_TNUM REUNION_CI REUNION_RMW REUNION_R34_NE REUNION_R34_SE REUNION_R34_SW REUNION_R34_NW REUNION_R50_NE REUNION_R50_SE REUNION_R50_SW REUNION_R50_NW REUNION_R64_NE REUNION_R64_SE REUNION_R64_SW REUNION_R64_NW BOM_LAT BOM_LON BOM_TYPE BOM_WIND BOM_PRES BOM_TNUM BOM_CI BOM_RMW BOM_R34_NE BOM_R34_SE BOM_R34_SW BOM_R34_NW BOM_R50_NE BOM_R50_SE BOM_R50_SW BOM_R50_NW BOM_R64_NE BOM_R64_SE BOM_R64_SW BOM_R64_NW BOM_ROCI BOM_POCI BOM_EYE BOM_POS_METHOD BOM_PRES_METHOD NADI_LAT NADI_LON NADI_CAT NADI_WIND NADI_PRES WELLINGTON_LAT WELLINGTON_LON WELLINGTON_WIND WELLINGTON_PRES DS824_LAT DS824_LON DS824_STAGE DS824_WIND DS824_PRES TD9636_LAT TD9636_LON TD9636_STAGE TD9636_WIND TD9636_PRES TD9635_LAT TD9635_LON TD9635_WIND TD9635_PRES TD9635_ROCI NEUMANN_LAT NEUMANN_LON NEUMANN_CLASS NEUMANN_WIND NEUMANN_PRES MLC_LAT MLC_LON MLC_CLASS MLC_WIND MLC_PRES USA_GUST BOM_GUST BOM_GUST_PER REUNION_GUST REUNION_GUST_PER USA_SEAHGT USA_SEARAD_NE USA_SEARAD_SE USA_SEARAD_SW USA_SEARAD_NW STORM_SPEED STORM_DIR
1940114N07140 1940 21 WP MM NOT_NAMED 1940-04-23 00:00:00 NR 7.00000 140.000 main 984 940 __________O___ -1 7.00000 140.000 4 12 243
1940114N07140 1940 21 WP MM NOT_NAMED 1940-04-23 03:00:00 NR 6.73742 139.474 main 930 887 __________P___ -1 6.73742 139.474 4 12 245
1940114N07140 1940 21 WP MM NOT_NAMED 1940-04-23 06:00:00 NR 6.48973 138.919 main 883 839 __________P___ -1 6.48973 138.919 4 13 248
1940114N07140 1940 21 WP MM NOT_NAMED 1940-04-23 09:00:00 NR 6.27222 138.305 main 839 793 __________P___ -1 6.27222 138.305 4 14 253
1940114N07140 1940 21 WP MM NOT_NAMED 1940-04-23 12:00:00 NR 6.10000 137.600 main 793 762 __________O___ -1 6.10000 137.600 4 15 259
1940114N07140 1940 21 WP MM NOT_NAMED 1940-04-23 15:00:00 NR 5.98386 136.790 main 762 740 __________P___ -1 5.98386 136.790 4 17 264
1940114N07140 1940 21 WP MM NOT_NAMED 1940-04-23 18:00:00 NR 5.91811 135.915 main 740 739 __________P___ -1 5.91811 135.915 4 18 267
1940114N07140 1940 21 WP MM NOT_NAMED 1940-04-23 21:00:00 NR 5.89322 135.033 main 740 718 __________P___ -1 5.89322 135.033 4 17 269
1940114N07140 1940 21 WP MM NOT_NAMED 1940-04-24 00:00:00 NR 5.90000 134.200 main 718 654 __________O___ -1 5.90000 134.200 4 15 270
1940114N07140 1940 21 WP MM NOT_NAMED 1940-04-24 03:00:00 NR 5.88415 133.484 main 654 602 __________P___ -1 5.88415 133.484 4 14 270
1940114N07140 1940 21 WP MM NOT_NAMED 1940-04-24 06:00:00 NR 5.90184 132.825 main 593 552 __________P___ -1 5.90184 132.825 4 13 274
1940114N07140 1940 21 WP MM NOT_NAMED 1940-04-24 09:00:00 NR 5.96863 132.203 main 552 516 __________P___ -1 5.96863 132.203 4 12 279
1940114N07140 1940 21 WP MM NOT_NAMED 1940-04-24 12:00:00 NR 6.10000 131.600 main 516 492 __________O___ -1 6.10000 131.600 4 13 285
1940114N07140 1940 21 WP MM NOT_NAMED 1940-04-24 15:00:00 NR 6.30209 130.962 main 496 427 __________P___ -1 6.30209 130.962 4 13 290
1940114N07140 1940 21 WP MM NOT_NAMED 1940-04-24 18:00:00 NR 6.56742 130.340 main 416 356 __________P___ -1 6.56742 130.340 4 13 295
1940114N07140 1940 21 WP MM NOT_NAMED 1940-04-24 21:00:00 NR 6.87402 129.749 main 345 287 __________P___ -1 6.87402 129.749 4 13 299
1940114N07140 1940 21 WP MM NOT_NAMED 1940-04-25 00:00:00 NR 7.20000 129.200 main 287 242 __________O___ -1 7.20000 129.200 4 12 304
1940114N07140 1940 21 WP MM NOT_NAMED 1940-04-25 03:00:00 NR 7.53423 128.751 main 242 198 __________P___ -1 7.53423 128.751 4 11 308
1940114N07140 1940 21 WP MM NOT_NAMED 1940-04-25 06:00:00 NR 7.87884 128.337 main 188 153 __________P___ -1 7.87884 128.337 4 11 309
1940114N07140 1940 21 WP MM NOT_NAMED 1940-04-25 09:00:00 NR 8.20909 127.904 main 153 112 __________P___ -1 8.20909 127.904 4 11 304
1940114N07140 1940 21 WP MM NOT_NAMED 1940-04-25 12:00:00 NR 8.50000 127.400 main 112 45 __________O___ -1 8.50000 127.400 4 13 294
1940114N07140 1940 21 WP MM NOT_NAMED 1940-04-25 15:00:00 NR 8.74760 126.677 main 45 0 __________P___ -1 8.74760 126.677 4 16 287
1940114N07140 1940 21 WP MM NOT_NAMED 1940-04-25 18:00:00 NR 8.94905 125.890 main 0 0 __________P___ -1 8.94905 125.890 4 16 283
1940114N07140 1940 21 WP MM NOT_NAMED 1940-04-25 21:00:00 NR 9.10078 125.133 main 15 15 __________P___ -1 9.10078 125.133 4 14 280
1940114N07140 1940 21 WP MM NOT_NAMED 1940-04-26 00:00:00 NR 9.20000 124.500 main 47 44 __________O___ -1 9.20000 124.500 4 10 278
1940114N07140 1940 21 WP MM NOT_NAMED 1940-04-26 03:00:00 NR 9.24945 124.101 main 44 33 __________P___ -1 9.24945 124.101 4 7 274
1940114N07140 1940 21 WP MM NOT_NAMED 1940-04-26 06:00:00 NR 9.25151 123.835 main 35 35 __________P___ -1 9.25151 123.835 4 4 267
1940114N07140 1940 21 WP MM NOT_NAMED 1940-04-26 09:00:00 NR 9.22786 123.651 main 45 24 __________P___ -1 9.22786 123.651 4 3 261
1940114N07140 1940 21 WP MM NOT_NAMED 1940-04-26 12:00:00 NR 9.20000 123.500 main 24 15 __________O___ -1 9.20000 123.500 4 3 264
1940114N07140 1940 21 WP MM NOT_NAMED 1940-04-26 15:00:00 NR 9.19958 123.364 main 15 0 __________P___ -1 9.19958 123.364 4 3 270
1940114N07140 1940 21 WP MM NOT_NAMED 1940-04-26 18:00:00 NR 9.19932 123.240 main 0 0 __________P___ -1 9.19932 123.240 4 3 270
1940114N07140 1940 21 WP MM NOT_NAMED 1940-04-26 21:00:00 NR 9.19943 123.071 main 0 0 __________P___ -1 9.19943 123.071 4 4 270
1940114N07140 1940 21 WP MM NOT_NAMED 1940-04-27 00:00:00 NR 9.20000 122.800 main 10 10 __________O___ -1 9.20000 122.800 7 7 270
1940114N07140 1940 21 WP MM NOT_NAMED 1940-04-27 03:00:00 NR 9.19635 122.350 main 47 47 __________P___ -1 9.19635 122.350 7 10 270
1940114N07140 1940 21 WP MM NOT_NAMED 1940-04-27 06:00:00 NR 9.19308 121.797 main 88 88 __________P___ -1 9.19308 121.797 7 11 270
1940114N07140 1940 21 WP MM NOT_NAMED 1940-04-27 09:00:00 NR 9.19318 121.196 main 147 147 __________P___ -1 9.19318 121.196 7 12 270
1940114N07140 1940 21 WP MM NOT_NAMED 1940-04-27 12:00:00 NR 9.20000 120.600 main 173 141 __________O___ -1 9.20000 120.600 7 11 271
1940114N07140 1940 21 WP MM NOT_NAMED 1940-04-27 15:00:00 NR 9.21611 120.050 main 133 104 __________P___ -1 9.21611 120.050 7 10 272
1940114N07140 1940 21 WP MM NOT_NAMED 1940-04-27 18:00:00 NR 9.23995 119.543 main 95 55 __________P___ -1 9.23995 119.543 7 10 273
1940114N07140 1940 21 WP MM NOT_NAMED 1940-04-27 21:00:00 NR 9.26885 119.064 main 55 15 __________P___ -1 9.26885 119.064 7 9 274
1940114N07140 1940 21 WP MM NOT_NAMED 1940-04-28 00:00:00 NR 9.30000 118.600 main 15 __________O___ -1 9.30000 118.600 7 9 274

Digital Typhoon Data and Search

About IBTrACS Database

This database is a web-friendly format of International Best Track Archive for Climate Stewardship (IBTrACS), a global best track data archive curated by NOAA dating back to 1842.

Updated: 2021-10-08